sensor_id;sensor_type;location;lat;lon;timestamp;P1;durP1;ratioP1;P2;durP2;ratioP2
25531;SDS011;13429;48.816;9.118;2023-07-20T00:01:28;2.85;;;1.80;;
25531;SDS011;13429;48.816;9.118;2023-07-20T00:03:54;6.13;;;1.88;;
25531;SDS011;13429;48.816;9.118;2023-07-20T00:06:20;2.67;;;1.73;;
25531;SDS011;13429;48.816;9.118;2023-07-20T00:08:47;6.05;;;1.92;;
25531;SDS011;13429;48.816;9.118;2023-07-20T00:11:13;4.22;;;1.83;;
25531;SDS011;13429;48.816;9.118;2023-07-20T00:13:39;7.47;;;1.60;;
25531;SDS011;13429;48.816;9.118;2023-07-20T00:16:06;7.47;;;2.50;;
25531;SDS011;13429;48.816;9.118;2023-07-20T00:18:32;3.97;;;1.77;;
25531;SDS011;13429;48.816;9.118;2023-07-20T00:20:58;7.30;;;1.70;;
25531;SDS011;13429;48.816;9.118;2023-07-20T00:23:27;2.50;;;1.50;;
25531;SDS011;13429;48.816;9.118;2023-07-20T00:25:53;2.15;;;1.60;;
25531;SDS011;13429;48.816;9.118;2023-07-20T00:28:19;2.78;;;1.58;;
25531;SDS011;13429;48.816;9.118;2023-07-20T00:30:45;6.38;;;1.92;;
25531;SDS011;13429;48.816;9.118;2023-07-20T00:33:11;4.78;;;1.70;;
25531;SDS011;13429;48.816;9.118;2023-07-20T00:35:40;4.68;;;1.75;;
25531;SDS011;13429;48.816;9.118;2023-07-20T00:38:06;6.40;;;1.58;;
25531;SDS011;13429;48.816;9.118;2023-07-20T00:40:36;6.15;;;1.77;;
25531;SDS011;13429;48.816;9.118;2023-07-20T00:43:02;3.08;;;1.52;;
25531;SDS011;13429;48.816;9.118;2023-07-20T00:45:28;3.10;;;1.67;;
25531;SDS011;13429;48.816;9.118;2023-07-20T00:47:55;5.38;;;1.48;;
25531;SDS011;13429;48.816;9.118;2023-07-20T00:50:21;5.93;;;1.40;;
25531;SDS011;13429;48.816;9.118;2023-07-20T00:52:47;4.68;;;1.50;;
25531;SDS011;13429;48.816;9.118;2023-07-20T00:55:14;2.65;;;1.55;;
25531;SDS011;13429;48.816;9.118;2023-07-20T00:57:40;4.88;;;1.85;;
25531;SDS011;13429;48.816;9.118;2023-07-20T01:00:07;3.13;;;1.65;;
25531;SDS011;13429;48.816;9.118;2023-07-20T01:02:33;4.75;;;1.67;;
25531;SDS011;13429;48.816;9.118;2023-07-20T01:04:59;3.45;;;1.58;;
25531;SDS011;13429;48.816;9.118;2023-07-20T01:12:35;3.72;;;1.95;;
25531;SDS011;13429;48.816;9.118;2023-07-20T01:15:05;5.05;;;1.63;;
25531;SDS011;13429;48.816;9.118;2023-07-20T01:17:33;4.32;;;1.60;;
25531;SDS011;13429;48.816;9.118;2023-07-20T01:19:59;5.60;;;1.50;;
25531;SDS011;13429;48.816;9.118;2023-07-20T01:32:51;6.43;;;1.60;;
25531;SDS011;13429;48.816;9.118;2023-07-20T01:35:20;3.85;;;1.77;;
25531;SDS011;13429;48.816;9.118;2023-07-20T01:37:51;2.15;;;1.35;;
25531;SDS011;13429;48.816;9.118;2023-07-20T01:40:18;5.10;;;1.42;;
25531;SDS011;13429;48.816;9.118;2023-07-20T01:42:45;4.20;;;1.77;;
25531;SDS011;13429;48.816;9.118;2023-07-20T01:45:12;2.17;;;1.48;;
25531;SDS011;13429;48.816;9.118;2023-07-20T01:47:38;8.73;;;1.98;;
25531;SDS011;13429;48.816;9.118;2023-07-20T01:50:04;2.63;;;1.90;;
25531;SDS011;13429;48.816;9.118;2023-07-20T01:52:30;2.72;;;1.67;;
25531;SDS011;13429;48.816;9.118;2023-07-20T01:54:56;10.10;;;1.55;;
25531;SDS011;13429;48.816;9.118;2023-07-20T01:57:22;6.25;;;2.08;;
25531;SDS011;13429;48.816;9.118;2023-07-20T01:59:48;4.13;;;1.83;;
25531;SDS011;13429;48.816;9.118;2023-07-20T02:02:15;4.20;;;1.63;;
25531;SDS011;13429;48.816;9.118;2023-07-20T02:04:41;2.85;;;1.63;;
25531;SDS011;13429;48.816;9.118;2023-07-20T02:07:07;4.82;;;1.95;;
25531;SDS011;13429;48.816;9.118;2023-07-20T02:09:33;4.57;;;1.98;;
25531;SDS011;13429;48.816;9.118;2023-07-20T02:11:59;3.25;;;2.05;;
25531;SDS011;13429;48.816;9.118;2023-07-20T02:14:25;6.32;;;1.80;;
25531;SDS011;13429;48.816;9.118;2023-07-20T02:16:51;5.95;;;2.08;;
25531;SDS011;13429;48.816;9.118;2023-07-20T02:19:19;2.95;;;1.80;;
25531;SDS011;13429;48.816;9.118;2023-07-20T02:21:45;5.80;;;2.45;;
25531;SDS011;13429;48.816;9.118;2023-07-20T02:24:11;6.50;;;1.80;;
25531;SDS011;13429;48.816;9.118;2023-07-20T02:26:37;2.67;;;1.85;;
25531;SDS011;13429;48.816;9.118;2023-07-20T02:29:03;2.45;;;1.55;;
25531;SDS011;13429;48.816;9.118;2023-07-20T02:31:30;3.72;;;1.58;;
25531;SDS011;13429;48.816;9.118;2023-07-20T02:33:56;4.25;;;1.85;;
25531;SDS011;13429;48.816;9.118;2023-07-20T02:36:22;7.22;;;2.22;;
25531;SDS011;13429;48.816;9.118;2023-07-20T02:38:48;4.57;;;1.95;;
25531;SDS011;13429;48.816;9.118;2023-07-20T02:41:14;2.90;;;1.73;;
25531;SDS011;13429;48.816;9.118;2023-07-20T02:43:40;5.63;;;1.75;;
25531;SDS011;13429;48.816;9.118;2023-07-20T02:46:06;2.80;;;1.55;;
25531;SDS011;13429;48.816;9.118;2023-07-20T02:48:32;5.90;;;2.53;;
25531;SDS011;13429;48.816;9.118;2023-07-20T02:50:58;3.47;;;1.88;;
25531;SDS011;13429;48.816;9.118;2023-07-20T02:53:24;2.35;;;1.63;;
25531;SDS011;13429;48.816;9.118;2023-07-20T02:55:50;3.33;;;1.90;;
25531;SDS011;13429;48.816;9.118;2023-07-20T02:58:16;3.22;;;1.95;;
25531;SDS011;13429;48.816;9.118;2023-07-20T03:00:42;5.80;;;1.92;;
25531;SDS011;13429;48.816;9.118;2023-07-20T03:03:09;2.90;;;1.77;;
25531;SDS011;13429;48.816;9.118;2023-07-20T03:05:35;3.90;;;1.90;;
25531;SDS011;13429;48.816;9.118;2023-07-20T03:08:04;5.75;;;1.98;;
25531;SDS011;13429;48.816;9.118;2023-07-20T03:10:31;4.43;;;1.80;;
25531;SDS011;13429;48.816;9.118;2023-07-20T03:12:57;4.47;;;1.63;;
25531;SDS011;13429;48.816;9.118;2023-07-20T03:15:23;6.68;;;2.25;;
25531;SDS011;13429;48.816;9.118;2023-07-20T03:17:49;3.65;;;1.80;;
25531;SDS011;13429;48.816;9.118;2023-07-20T03:20:16;4.30;;;1.55;;
25531;SDS011;13429;48.816;9.118;2023-07-20T03:22:42;5.10;;;1.67;;
25531;SDS011;13429;48.816;9.118;2023-07-20T03:25:08;4.60;;;1.85;;
25531;SDS011;13429;48.816;9.118;2023-07-20T03:27:34;6.15;;;2.72;;
25531;SDS011;13429;48.816;9.118;2023-07-20T03:30:01;5.30;;;2.03;;
25531;SDS011;13429;48.816;9.118;2023-07-20T03:32:27;4.18;;;1.80;;
25531;SDS011;13429;48.816;9.118;2023-07-20T03:34:53;4.95;;;1.98;;
25531;SDS011;13429;48.816;9.118;2023-07-20T03:37:19;4.03;;;1.85;;
25531;SDS011;13429;48.816;9.118;2023-07-20T03:39:45;4.57;;;2.03;;
25531;SDS011;13429;48.816;9.118;2023-07-20T03:42:11;3.13;;;1.70;;
25531;SDS011;13429;48.816;9.118;2023-07-20T03:44:37;17.17;;;2.42;;
25531;SDS011;13429;48.816;9.118;2023-07-20T03:47:03;3.08;;;1.60;;
25531;SDS011;13429;48.816;9.118;2023-07-20T03:49:29;2.88;;;1.67;;
25531;SDS011;13429;48.816;9.118;2023-07-20T03:51:55;3.80;;;2.20;;
25531;SDS011;13429;48.816;9.118;2023-07-20T03:54:22;3.53;;;1.80;;
25531;SDS011;13429;48.816;9.118;2023-07-20T03:56:48;3.65;;;1.90;;
25531;SDS011;13429;48.816;9.118;2023-07-20T03:59:14;4.90;;;2.13;;
25531;SDS011;13429;48.816;9.118;2023-07-20T04:01:40;2.92;;;1.88;;
25531;SDS011;13429;48.816;9.118;2023-07-20T04:04:07;4.53;;;2.00;;
25531;SDS011;13429;48.816;9.118;2023-07-20T04:06:33;4.78;;;1.63;;
25531;SDS011;13429;48.816;9.118;2023-07-20T04:08:59;4.53;;;2.05;;
25531;SDS011;13429;48.816;9.118;2023-07-20T04:11:25;7.80;;;2.28;;
25531;SDS011;13429;48.816;9.118;2023-07-20T04:13:51;3.47;;;2.30;;
25531;SDS011;13429;48.816;9.118;2023-07-20T04:16:17;2.92;;;1.75;;
25531;SDS011;13429;48.816;9.118;2023-07-20T04:18:45;4.72;;;2.35;;
25531;SDS011;13429;48.816;9.118;2023-07-20T04:21:11;3.72;;;2.10;;
25531;SDS011;13429;48.816;9.118;2023-07-20T04:23:37;3.28;;;2.00;;
25531;SDS011;13429;48.816;9.118;2023-07-20T04:26:03;5.22;;;2.13;;
25531;SDS011;13429;48.816;9.118;2023-07-20T04:28:29;2.03;;;1.60;;
25531;SDS011;13429;48.816;9.118;2023-07-20T04:30:55;6.18;;;2.17;;
25531;SDS011;13429;48.816;9.118;2023-07-20T04:33:35;4.68;;;1.83;;
25531;SDS011;13429;48.816;9.118;2023-07-20T04:36:01;6.85;;;1.88;;
25531;SDS011;13429;48.816;9.118;2023-07-20T04:38:27;10.02;;;2.30;;
25531;SDS011;13429;48.816;9.118;2023-07-20T04:40:53;3.47;;;1.90;;
25531;SDS011;13429;48.816;9.118;2023-07-20T04:43:20;6.53;;;1.98;;
25531;SDS011;13429;48.816;9.118;2023-07-20T04:45:46;4.75;;;2.22;;
25531;SDS011;13429;48.816;9.118;2023-07-20T04:48:13;3.60;;;1.77;;
25531;SDS011;13429;48.816;9.118;2023-07-20T04:50:40;5.22;;;2.00;;
25531;SDS011;13429;48.816;9.118;2023-07-20T04:53:06;5.07;;;2.13;;
25531;SDS011;13429;48.816;9.118;2023-07-20T04:55:33;9.65;;;2.92;;
25531;SDS011;13429;48.816;9.118;2023-07-20T04:58:00;9.93;;;2.05;;
25531;SDS011;13429;48.816;9.118;2023-07-20T05:00:26;4.78;;;2.17;;
25531;SDS011;13429;48.816;9.118;2023-07-20T05:02:52;4.65;;;2.03;;
25531;SDS011;13429;48.816;9.118;2023-07-20T05:05:18;4.03;;;2.10;;
25531;SDS011;13429;48.816;9.118;2023-07-20T05:07:44;4.45;;;2.15;;
25531;SDS011;13429;48.816;9.118;2023-07-20T05:10:10;6.75;;;1.90;;
25531;SDS011;13429;48.816;9.118;2023-07-20T05:12:36;3.08;;;1.65;;
25531;SDS011;13429;48.816;9.118;2023-07-20T05:15:03;4.22;;;1.55;;
25531;SDS011;13429;48.816;9.118;2023-07-20T05:17:29;3.63;;;1.75;;
25531;SDS011;13429;48.816;9.118;2023-07-20T05:19:55;5.50;;;2.17;;
25531;SDS011;13429;48.816;9.118;2023-07-20T05:22:21;6.05;;;2.20;;
25531;SDS011;13429;48.816;9.118;2023-07-20T05:24:48;3.72;;;1.92;;
25531;SDS011;13429;48.816;9.118;2023-07-20T05:27:14;3.53;;;2.03;;
25531;SDS011;13429;48.816;9.118;2023-07-20T05:29:44;5.72;;;1.70;;
25531;SDS011;13429;48.816;9.118;2023-07-20T05:32:10;4.15;;;1.88;;
25531;SDS011;13429;48.816;9.118;2023-07-20T05:34:36;3.95;;;1.77;;
25531;SDS011;13429;48.816;9.118;2023-07-20T05:37:02;5.03;;;1.80;;
25531;SDS011;13429;48.816;9.118;2023-07-20T05:39:28;7.20;;;1.77;;
25531;SDS011;13429;48.816;9.118;2023-07-20T05:41:54;5.82;;;1.70;;
25531;SDS011;13429;48.816;9.118;2023-07-20T05:44:20;3.78;;;1.88;;
25531;SDS011;13429;48.816;9.118;2023-07-20T05:46:46;3.03;;;1.73;;
25531;SDS011;13429;48.816;9.118;2023-07-20T05:49:12;5.32;;;1.83;;
25531;SDS011;13429;48.816;9.118;2023-07-20T05:51:38;4.28;;;1.95;;
25531;SDS011;13429;48.816;9.118;2023-07-20T05:54:04;5.65;;;1.70;;
25531;SDS011;13429;48.816;9.118;2023-07-20T05:56:30;7.10;;;2.15;;
25531;SDS011;13429;48.816;9.118;2023-07-20T05:58:56;3.80;;;1.67;;
25531;SDS011;13429;48.816;9.118;2023-07-20T06:01:22;4.38;;;1.88;;
25531;SDS011;13429;48.816;9.118;2023-07-20T06:03:48;2.25;;;1.55;;
25531;SDS011;13429;48.816;9.118;2023-07-20T06:06:15;3.45;;;1.83;;
25531;SDS011;13429;48.816;9.118;2023-07-20T06:08:41;4.00;;;1.90;;
25531;SDS011;13429;48.816;9.118;2023-07-20T06:11:07;3.72;;;1.50;;
25531;SDS011;13429;48.816;9.118;2023-07-20T06:13:33;6.05;;;2.08;;
25531;SDS011;13429;48.816;9.118;2023-07-20T06:15:59;4.38;;;1.85;;
25531;SDS011;13429;48.816;9.118;2023-07-20T06:18:25;4.38;;;1.77;;
25531;SDS011;13429;48.816;9.118;2023-07-20T06:20:51;4.15;;;2.22;;
25531;SDS011;13429;48.816;9.118;2023-07-20T06:23:18;7.18;;;2.03;;
25531;SDS011;13429;48.816;9.118;2023-07-20T06:25:44;3.47;;;1.67;;
25531;SDS011;13429;48.816;9.118;2023-07-20T06:28:10;3.88;;;1.65;;
25531;SDS011;13429;48.816;9.118;2023-07-20T06:30:36;5.97;;;1.58;;
25531;SDS011;13429;48.816;9.118;2023-07-20T06:33:02;3.65;;;1.73;;
25531;SDS011;13429;48.816;9.118;2023-07-20T06:35:28;6.30;;;2.08;;
25531;SDS011;13429;48.816;9.118;2023-07-20T06:37:54;7.53;;;1.60;;
25531;SDS011;13429;48.816;9.118;2023-07-20T06:40:21;2.90;;;1.70;;
25531;SDS011;13429;48.816;9.118;2023-07-20T06:42:47;5.07;;;1.77;;
25531;SDS011;13429;48.816;9.118;2023-07-20T06:45:13;4.15;;;1.50;;
25531;SDS011;13429;48.816;9.118;2023-07-20T06:47:39;6.28;;;2.28;;
25531;SDS011;13429;48.816;9.118;2023-07-20T06:50:06;5.63;;;1.75;;
25531;SDS011;13429;48.816;9.118;2023-07-20T06:52:32;3.55;;;1.52;;
25531;SDS011;13429;48.816;9.118;2023-07-20T06:54:58;5.53;;;2.03;;
25531;SDS011;13429;48.816;9.118;2023-07-20T06:57:25;3.95;;;1.98;;
25531;SDS011;13429;48.816;9.118;2023-07-20T06:59:51;5.93;;;2.13;;
25531;SDS011;13429;48.816;9.118;2023-07-20T07:02:18;4.93;;;2.25;;
25531;SDS011;13429;48.816;9.118;2023-07-20T07:04:47;3.55;;;1.88;;
25531;SDS011;13429;48.816;9.118;2023-07-20T07:07:14;4.05;;;1.70;;
25531;SDS011;13429;48.816;9.118;2023-07-20T07:09:40;5.60;;;2.00;;
25531;SDS011;13429;48.816;9.118;2023-07-20T07:12:06;5.75;;;1.95;;
25531;SDS011;13429;48.816;9.118;2023-07-20T07:14:32;4.22;;;1.83;;
25531;SDS011;13429;48.816;9.118;2023-07-20T07:16:58;5.00;;;1.80;;
25531;SDS011;13429;48.816;9.118;2023-07-20T07:19:24;5.28;;;1.70;;
25531;SDS011;13429;48.816;9.118;2023-07-20T07:21:50;2.42;;;1.60;;
25531;SDS011;13429;48.816;9.118;2023-07-20T07:24:17;4.47;;;2.03;;
25531;SDS011;13429;48.816;9.118;2023-07-20T07:26:43;8.70;;;2.05;;
25531;SDS011;13429;48.816;9.118;2023-07-20T07:29:09;2.80;;;1.50;;
25531;SDS011;13429;48.816;9.118;2023-07-20T07:31:35;2.50;;;1.55;;
25531;SDS011;13429;48.816;9.118;2023-07-20T07:34:01;3.63;;;2.10;;
25531;SDS011;13429;48.816;9.118;2023-07-20T07:36:28;4.63;;;1.85;;
25531;SDS011;13429;48.816;9.118;2023-07-20T07:38:53;6.25;;;1.85;;
25531;SDS011;13429;48.816;9.118;2023-07-20T07:41:19;3.60;;;1.52;;
25531;SDS011;13429;48.816;9.118;2023-07-20T07:43:46;3.55;;;1.70;;
25531;SDS011;13429;48.816;9.118;2023-07-20T07:46:12;5.05;;;1.83;;
25531;SDS011;13429;48.816;9.118;2023-07-20T07:48:39;8.00;;;1.85;;
25531;SDS011;13429;48.816;9.118;2023-07-20T07:51:05;3.92;;;1.92;;
25531;SDS011;13429;48.816;9.118;2023-07-20T07:53:31;3.08;;;1.73;;
25531;SDS011;13429;48.816;9.118;2023-07-20T07:55:57;3.90;;;1.75;;
25531;SDS011;13429;48.816;9.118;2023-07-20T07:58:23;1.95;;;1.33;;
25531;SDS011;13429;48.816;9.118;2023-07-20T08:00:49;5.05;;;1.90;;
25531;SDS011;13429;48.816;9.118;2023-07-20T08:03:16;6.88;;;1.80;;
25531;SDS011;13429;48.816;9.118;2023-07-20T08:05:42;6.03;;;1.95;;
25531;SDS011;13429;48.816;9.118;2023-07-20T08:08:08;3.83;;;2.30;;
25531;SDS011;13429;48.816;9.118;2023-07-20T08:10:34;3.53;;;1.38;;
25531;SDS011;13429;48.816;9.118;2023-07-20T08:13:00;4.03;;;1.92;;
25531;SDS011;13429;48.816;9.118;2023-07-20T08:15:26;3.90;;;2.15;;
25531;SDS011;13429;48.816;9.118;2023-07-20T08:17:52;5.47;;;1.80;;
25531;SDS011;13429;48.816;9.118;2023-07-20T08:20:18;3.05;;;1.90;;
25531;SDS011;13429;48.816;9.118;2023-07-20T08:22:48;4.90;;;2.13;;
25531;SDS011;13429;48.816;9.118;2023-07-20T08:25:14;3.42;;;2.03;;
25531;SDS011;13429;48.816;9.118;2023-07-20T08:27:40;5.72;;;2.13;;
25531;SDS011;13429;48.816;9.118;2023-07-20T08:30:06;6.22;;;1.90;;
25531;SDS011;13429;48.816;9.118;2023-07-20T08:32:33;4.97;;;1.85;;
25531;SDS011;13429;48.816;9.118;2023-07-20T08:34:59;3.50;;;1.50;;
25531;SDS011;13429;48.816;9.118;2023-07-20T08:37:25;3.55;;;1.80;;
25531;SDS011;13429;48.816;9.118;2023-07-20T08:39:51;2.65;;;1.80;;
25531;SDS011;13429;48.816;9.118;2023-07-20T08:42:17;2.55;;;1.63;;
25531;SDS011;13429;48.816;9.118;2023-07-20T08:44:43;4.43;;;2.13;;
25531;SDS011;13429;48.816;9.118;2023-07-20T08:47:09;7.38;;;2.28;;
25531;SDS011;13429;48.816;9.118;2023-07-20T08:49:36;3.97;;;1.60;;
25531;SDS011;13429;48.816;9.118;2023-07-20T08:52:03;3.25;;;1.33;;
25531;SDS011;13429;48.816;9.118;2023-07-20T08:54:30;4.70;;;1.83;;
25531;SDS011;13429;48.816;9.118;2023-07-20T08:57:03;4.07;;;1.33;;
25531;SDS011;13429;48.816;9.118;2023-07-20T08:59:29;4.50;;;1.40;;
25531;SDS011;13429;48.816;9.118;2023-07-20T09:01:59;3.97;;;1.88;;
25531;SDS011;13429;48.816;9.118;2023-07-20T09:04:25;5.00;;;1.58;;
25531;SDS011;13429;48.816;9.118;2023-07-20T09:06:51;2.45;;;1.58;;
25531;SDS011;13429;48.816;9.118;2023-07-20T09:09:17;4.90;;;1.90;;
25531;SDS011;13429;48.816;9.118;2023-07-20T09:11:43;2.47;;;1.92;;
25531;SDS011;13429;48.816;9.118;2023-07-20T09:14:11;2.85;;;1.48;;
25531;SDS011;13429;48.816;9.118;2023-07-20T09:16:51;2.55;;;1.70;;
25531;SDS011;13429;48.816;9.118;2023-07-20T09:19:18;4.45;;;1.45;;
25531;SDS011;13429;48.816;9.118;2023-07-20T09:21:51;7.82;;;1.65;;
25531;SDS011;13429;48.816;9.118;2023-07-20T09:24:18;2.58;;;1.60;;
25531;SDS011;13429;48.816;9.118;2023-07-20T09:26:45;2.78;;;1.45;;
25531;SDS011;13429;48.816;9.118;2023-07-20T09:29:13;3.38;;;1.30;;
25531;SDS011;13429;48.816;9.118;2023-07-20T09:31:39;3.90;;;1.48;;
25531;SDS011;13429;48.816;9.118;2023-07-20T09:34:06;3.45;;;1.70;;
25531;SDS011;13429;48.816;9.118;2023-07-20T09:36:33;3.78;;;1.60;;
25531;SDS011;13429;48.816;9.118;2023-07-20T09:39:00;4.50;;;1.35;;
25531;SDS011;13429;48.816;9.118;2023-07-20T09:41:26;5.55;;;1.60;;
25531;SDS011;13429;48.816;9.118;2023-07-20T09:43:52;3.28;;;1.67;;
25531;SDS011;13429;48.816;9.118;2023-07-20T09:46:18;6.00;;;1.52;;
25531;SDS011;13429;48.816;9.118;2023-07-20T09:48:54;2.35;;;1.40;;
25531;SDS011;13429;48.816;9.118;2023-07-20T09:51:23;2.63;;;1.20;;
25531;SDS011;13429;48.816;9.118;2023-07-20T09:53:51;4.65;;;1.58;;
25531;SDS011;13429;48.816;9.118;2023-07-20T09:56:21;3.35;;;1.40;;
25531;SDS011;13429;48.816;9.118;2023-07-20T09:58:50;2.67;;;1.48;;
25531;SDS011;13429;48.816;9.118;2023-07-20T10:01:17;1.98;;;1.10;;
25531;SDS011;13429;48.816;9.118;2023-07-20T10:03:44;2.08;;;0.90;;
25531;SDS011;13429;48.816;9.118;2023-07-20T10:06:13;6.10;;;1.60;;
25531;SDS011;13429;48.816;9.118;2023-07-20T10:08:41;3.80;;;1.73;;
25531;SDS011;13429;48.816;9.118;2023-07-20T10:11:07;3.88;;;1.15;;
25531;SDS011;13429;48.816;9.118;2023-07-20T10:13:36;4.45;;;1.00;;
25531;SDS011;13429;48.816;9.118;2023-07-20T10:16:03;1.55;;;0.98;;
25531;SDS011;13429;48.816;9.118;2023-07-20T10:19:17;2.08;;;1.30;;
25531;SDS011;13429;48.816;9.118;2023-07-20T10:21:17;2.47;;;1.20;;
25531;SDS011;13429;48.816;9.118;2023-07-20T10:23:45;5.10;;;1.33;;
25531;SDS011;13429;48.816;9.118;2023-07-20T10:26:11;2.80;;;1.30;;
25531;SDS011;13429;48.816;9.118;2023-07-20T10:28:38;4.85;;;1.60;;
25531;SDS011;13429;48.816;9.118;2023-07-20T10:31:06;2.67;;;1.02;;
25531;SDS011;13429;48.816;9.118;2023-07-20T10:33:33;4.32;;;1.30;;
25531;SDS011;13429;48.816;9.118;2023-07-20T10:36:03;1.80;;;1.23;;
25531;SDS011;13429;48.816;9.118;2023-07-20T10:38:39;2.65;;;0.93;;
25531;SDS011;13429;48.816;9.118;2023-07-20T10:41:18;2.10;;;1.20;;
25531;SDS011;13429;48.816;9.118;2023-07-20T10:43:45;1.73;;;1.05;;
25531;SDS011;13429;48.816;9.118;2023-07-20T10:46:11;1.95;;;1.10;;
25531;SDS011;13429;48.816;9.118;2023-07-20T10:51:22;2.10;;;1.00;;
25531;SDS011;13429;48.816;9.118;2023-07-20T10:53:49;1.80;;;1.35;;
25531;SDS011;13429;48.816;9.118;2023-07-20T10:56:19;1.33;;;0.90;;
25531;SDS011;13429;48.816;9.118;2023-07-20T10:58:45;2.20;;;1.20;;
25531;SDS011;13429;48.816;9.118;2023-07-20T11:01:18;3.75;;;1.10;;
25531;SDS011;13429;48.816;9.118;2023-07-20T11:03:48;3.65;;;1.00;;
25531;SDS011;13429;48.816;9.118;2023-07-20T11:13:55;1.90;;;1.00;;
25531;SDS011;13429;48.816;9.118;2023-07-20T11:16:35;1.20;;;0.93;;
25531;SDS011;13429;48.816;9.118;2023-07-20T11:19:02;1.75;;;1.15;;
25531;SDS011;13429;48.816;9.118;2023-07-20T11:21:28;2.05;;;1.10;;
25531;SDS011;13429;48.816;9.118;2023-07-20T11:23:55;2.40;;;1.10;;
25531;SDS011;13429;48.816;9.118;2023-07-20T11:26:21;4.55;;;1.15;;
25531;SDS011;13429;48.816;9.118;2023-07-20T11:28:50;2.08;;;1.08;;
25531;SDS011;13429;48.816;9.118;2023-07-20T11:31:17;1.48;;;1.00;;
25531;SDS011;13429;48.816;9.118;2023-07-20T11:33:44;1.23;;;0.95;;
25531;SDS011;13429;48.816;9.118;2023-07-20T11:36:10;1.40;;;0.90;;
25531;SDS011;13429;48.816;9.118;2023-07-20T11:38:36;2.28;;;0.90;;
25531;SDS011;13429;48.816;9.118;2023-07-20T11:41:03;3.42;;;1.00;;
25531;SDS011;13429;48.816;9.118;2023-07-20T11:43:29;2.33;;;1.10;;
25531;SDS011;13429;48.816;9.118;2023-07-20T11:45:56;2.38;;;1.00;;
25531;SDS011;13429;48.816;9.118;2023-07-20T11:48:22;6.55;;;1.10;;
25531;SDS011;13429;48.816;9.118;2023-07-20T11:50:48;2.38;;;0.90;;
25531;SDS011;13429;48.816;9.118;2023-07-20T11:53:14;1.90;;;0.90;;
25531;SDS011;13429;48.816;9.118;2023-07-20T11:55:40;1.67;;;0.80;;
25531;SDS011;13429;48.816;9.118;2023-07-20T11:58:07;4.25;;;1.20;;
25531;SDS011;13429;48.816;9.118;2023-07-20T12:00:34;2.97;;;1.13;;
25531;SDS011;13429;48.816;9.118;2023-07-20T12:03:00;1.70;;;0.85;;
25531;SDS011;13429;48.816;9.118;2023-07-20T12:05:26;1.38;;;0.90;;
25531;SDS011;13429;48.816;9.118;2023-07-20T12:07:53;3.92;;;1.45;;
25531;SDS011;13429;48.816;9.118;2023-07-20T12:10:26;4.05;;;1.48;;
25531;SDS011;13429;48.816;9.118;2023-07-20T12:13:01;3.88;;;0.93;;
25531;SDS011;13429;48.816;9.118;2023-07-20T12:15:28;2.60;;;0.80;;
25531;SDS011;13429;48.816;9.118;2023-07-20T12:18:04;4.43;;;1.10;;
25531;SDS011;13429;48.816;9.118;2023-07-20T12:20:34;1.73;;;1.00;;
25531;SDS011;13429;48.816;9.118;2023-07-20T12:25:36;3.35;;;1.17;;
25531;SDS011;13429;48.816;9.118;2023-07-20T12:28:09;2.47;;;1.15;;
25531;SDS011;13429;48.816;9.118;2023-07-20T12:30:36;3.53;;;1.20;;
25531;SDS011;13429;48.816;9.118;2023-07-20T12:33:02;1.63;;;0.98;;
25531;SDS011;13429;48.816;9.118;2023-07-20T12:35:29;3.35;;;0.93;;
25531;SDS011;13429;48.816;9.118;2023-07-20T12:37:55;2.33;;;1.00;;
25531;SDS011;13429;48.816;9.118;2023-07-20T12:40:21;2.33;;;1.15;;
25531;SDS011;13429;48.816;9.118;2023-07-20T12:42:47;2.38;;;1.15;;
25531;SDS011;13429;48.816;9.118;2023-07-20T12:45:13;1.55;;;0.70;;
25531;SDS011;13429;48.816;9.118;2023-07-20T12:47:40;3.40;;;1.05;;
25531;SDS011;13429;48.816;9.118;2023-07-20T12:50:08;4.53;;;1.35;;
25531;SDS011;13429;48.816;9.118;2023-07-20T12:52:35;2.33;;;0.80;;
25531;SDS011;13429;48.816;9.118;2023-07-20T12:55:02;3.75;;;1.23;;
25531;SDS011;13429;48.816;9.118;2023-07-20T12:57:28;2.38;;;0.90;;
25531;SDS011;13429;48.816;9.118;2023-07-20T12:59:54;2.40;;;0.93;;
25531;SDS011;13429;48.816;9.118;2023-07-20T13:02:20;2.22;;;1.67;;
25531;SDS011;13429;48.816;9.118;2023-07-20T13:04:46;6.75;;;0.90;;
25531;SDS011;13429;48.816;9.118;2023-07-20T13:07:13;4.85;;;0.98;;
25531;SDS011;13429;48.816;9.118;2023-07-20T13:09:38;1.70;;;1.20;;
25531;SDS011;13429;48.816;9.118;2023-07-20T13:12:05;1.88;;;0.85;;
25531;SDS011;13429;48.816;9.118;2023-07-20T13:14:31;2.15;;;0.90;;
25531;SDS011;13429;48.816;9.118;2023-07-20T13:16:57;1.90;;;0.70;;
25531;SDS011;13429;48.816;9.118;2023-07-20T13:19:23;3.40;;;1.20;;
25531;SDS011;13429;48.816;9.118;2023-07-20T13:21:49;1.25;;;0.70;;
25531;SDS011;13429;48.816;9.118;2023-07-20T13:24:16;2.55;;;1.17;;
25531;SDS011;13429;48.816;9.118;2023-07-20T13:26:42;2.30;;;0.82;;
25531;SDS011;13429;48.816;9.118;2023-07-20T13:29:08;2.95;;;1.25;;
25531;SDS011;13429;48.816;9.118;2023-07-20T13:31:34;1.02;;;0.82;;
25531;SDS011;13429;48.816;9.118;2023-07-20T13:34:00;1.23;;;0.77;;
25531;SDS011;13429;48.816;9.118;2023-07-20T13:36:26;1.92;;;0.82;;
25531;SDS011;13429;48.816;9.118;2023-07-20T13:38:52;3.55;;;1.30;;
25531;SDS011;13429;48.816;9.118;2023-07-20T13:41:18;1.33;;;0.80;;
25531;SDS011;13429;48.816;9.118;2023-07-20T13:43:44;1.83;;;1.08;;
25531;SDS011;13429;48.816;9.118;2023-07-20T13:46:11;2.38;;;1.20;;
25531;SDS011;13429;48.816;9.118;2023-07-20T13:48:37;1.50;;;0.90;;
25531;SDS011;13429;48.816;9.118;2023-07-20T13:51:03;2.65;;;1.23;;
25531;SDS011;13429;48.816;9.118;2023-07-20T13:53:29;2.47;;;1.08;;
25531;SDS011;13429;48.816;9.118;2023-07-20T13:55:55;2.65;;;0.98;;
25531;SDS011;13429;48.816;9.118;2023-07-20T13:58:22;1.83;;;0.80;;
25531;SDS011;13429;48.816;9.118;2023-07-20T14:00:48;5.15;;;1.20;;
25531;SDS011;13429;48.816;9.118;2023-07-20T14:03:14;1.70;;;1.30;;
25531;SDS011;13429;48.816;9.118;2023-07-20T14:05:40;0.93;;;0.80;;
25531;SDS011;13429;48.816;9.118;2023-07-20T14:08:06;7.95;;;1.35;;
25531;SDS011;13429;48.816;9.118;2023-07-20T14:10:32;2.45;;;0.90;;
25531;SDS011;13429;48.816;9.118;2023-07-20T14:12:58;1.58;;;0.90;;
25531;SDS011;13429;48.816;9.118;2023-07-20T14:15:24;1.33;;;0.85;;
25531;SDS011;13429;48.816;9.118;2023-07-20T14:17:50;3.95;;;1.13;;
25531;SDS011;13429;48.816;9.118;2023-07-20T14:20:16;2.35;;;0.77;;
25531;SDS011;13429;48.816;9.118;2023-07-20T14:22:42;1.85;;;0.80;;
25531;SDS011;13429;48.816;9.118;2023-07-20T14:25:09;1.90;;;0.80;;
25531;SDS011;13429;48.816;9.118;2023-07-20T14:27:35;1.75;;;1.05;;
25531;SDS011;13429;48.816;9.118;2023-07-20T14:30:01;1.38;;;0.73;;
25531;SDS011;13429;48.816;9.118;2023-07-20T14:32:28;2.75;;;0.98;;
25531;SDS011;13429;48.816;9.118;2023-07-20T14:34:55;0.90;;;0.70;;
25531;SDS011;13429;48.816;9.118;2023-07-20T14:37:21;1.63;;;1.00;;
25531;SDS011;13429;48.816;9.118;2023-07-20T14:39:47;1.58;;;0.70;;
25531;SDS011;13429;48.816;9.118;2023-07-20T14:42:13;2.25;;;0.90;;
25531;SDS011;13429;48.816;9.118;2023-07-20T14:44:39;5.28;;;1.42;;
25531;SDS011;13429;48.816;9.118;2023-07-20T14:47:05;2.00;;;0.65;;
25531;SDS011;13429;48.816;9.118;2023-07-20T14:49:31;1.92;;;1.15;;
25531;SDS011;13429;48.816;9.118;2023-07-20T14:51:57;1.10;;;0.77;;
25531;SDS011;13429;48.816;9.118;2023-07-20T14:54:23;0.95;;;0.75;;
25531;SDS011;13429;48.816;9.118;2023-07-20T14:56:50;2.40;;;1.08;;
25531;SDS011;13429;48.816;9.118;2023-07-20T14:59:21;3.35;;;1.00;;
25531;SDS011;13429;48.816;9.118;2023-07-20T15:01:47;2.53;;;1.10;;
25531;SDS011;13429;48.816;9.118;2023-07-20T15:04:13;1.80;;;0.80;;
25531;SDS011;13429;48.816;9.118;2023-07-20T15:06:40;1.77;;;0.85;;
25531;SDS011;13429;48.816;9.118;2023-07-20T15:09:06;2.10;;;1.10;;
25531;SDS011;13429;48.816;9.118;2023-07-20T15:11:33;1.48;;;0.85;;
25531;SDS011;13429;48.816;9.118;2023-07-20T15:13:59;1.05;;;0.60;;